createdAt,value
2022-11-18T00:09:58.008Z,84.29
2022-11-18T00:20:02.455Z,85.12
2022-11-18T00:30:06.152Z,86.37
2022-11-18T00:40:12.022Z,85.24
2022-11-18T00:50:15.302Z,85.49
2022-11-18T01:00:20.210Z,86.17
2022-11-18T01:10:23.212Z,86.10
2022-11-18T01:20:27.674Z,86.40
2022-11-18T01:30:30.722Z,86.22
2022-11-18T01:40:36.299Z,86.28
2022-11-18T01:50:42.962Z,86.81
2022-11-18T02:00:47.294Z,86.87
2022-11-18T02:10:50.280Z,86.31
2022-11-18T02:20:58.943Z,86.63
2022-11-18T02:31:08.629Z,86.49
2022-11-18T02:41:17.383Z,86.97
2022-11-18T02:51:26.317Z,86.64
2022-11-18T03:01:32.792Z,87.31
2022-11-18T03:11:45.551Z,86.76
2022-11-18T03:21:56.413Z,86.66
2022-11-18T03:32:06.999Z,86.65
2022-11-18T03:42:16.718Z,87.24
2022-11-18T03:52:25.442Z,87.97
2022-11-18T04:02:31.087Z,88.72
2022-11-18T04:12:40.539Z,88.59
2022-11-18T04:22:43.728Z,89.26
2022-11-18T04:32:48.364Z,89.26
2022-11-18T04:42:51.170Z,89.22
2022-11-18T04:52:55.292Z,89.58
2022-11-18T05:02:58.169Z,89.21
2022-11-18T05:13:02.515Z,89.63
2022-11-18T05:23:05.203Z,88.47
2022-11-18T05:33:09.418Z,88.31
2022-11-18T05:43:12.791Z,88.05
2022-11-18T05:53:18.333Z,87.90
2022-11-18T06:03:30.547Z,87.94
2022-11-18T06:13:39.902Z,88.77
2022-11-18T06:23:44.595Z,89.02
2022-11-18T06:33:48.921Z,88.69
2022-11-18T06:43:51.918Z,88.47
2022-11-18T06:53:56.458Z,87.92
2022-11-18T07:04:00.921Z,87.75
2022-11-18T07:14:05.102Z,88.58
2022-11-18T07:24:09.734Z,88.12
2022-11-18T07:34:14.650Z,88.23
2022-11-18T07:44:18.442Z,88.81
2022-11-18T07:54:22.685Z,89.12
2022-11-18T08:04:25.546Z,88.93
2022-11-18T08:14:30.436Z,89.01
2022-11-18T08:24:33.401Z,88.98
2022-11-18T08:34:39.276Z,89.57
2022-11-18T08:44:42.373Z,89.50
2022-11-18T08:54:46.705Z,89.06
2022-11-18T09:04:50.609Z,89.55
2022-11-18T09:25:18.020Z,89.99
2022-11-18T09:35:23.994Z,88.46
2022-11-18T09:45:34.385Z,86.49
2022-11-18T09:55:41.185Z,84.51
2022-11-18T10:05:49.578Z,83.54
2022-11-18T10:16:05.088Z,82.01
2022-11-18T10:26:08.166Z,78.41
2022-11-18T10:36:28.232Z,74.90
2022-11-18T10:46:33.250Z,73.43
2022-11-18T11:01:48.002Z,71.51
2022-11-18T11:07:26.163Z,67.66
2022-11-18T11:17:35.292Z,66.19
2022-11-18T11:38:19.517Z,64.41
2022-11-18T11:48:32.937Z,63.55
2022-11-18T11:58:58.314Z,63.55
2022-11-18T12:09:09.364Z,65.71
2022-11-18T12:19:16.841Z,65.49
2022-11-18T12:29:24.839Z,67.39
2022-11-18T12:39:51.621Z,66.63
2022-11-18T12:50:15.087Z,66.19
2022-11-18T13:00:28.612Z,62.32
2022-11-18T13:10:35.829Z,62.48
2022-11-18T13:20:41.064Z,63.77
2022-11-18T13:30:53.467Z,63.45
2022-11-18T13:41:07.771Z,63.26
2022-11-18T13:51:13.666Z,62.85
2022-11-18T14:01:20.786Z,62.27
2022-11-18T14:11:38.648Z,62.30
2022-11-18T14:21:41.697Z,62.43
2022-11-18T14:32:33.114Z,63.82
2022-11-18T14:43:32.002Z,63.93
2022-11-18T14:55:16.781Z,64.30
2022-11-18T15:06:29.062Z,63.94
2022-11-18T15:17:55.736Z,64.50
2022-11-18T15:28:49.840Z,65.38
2022-11-18T15:51:11.956Z,66.04
2022-11-18T16:02:15.224Z,68.11
2022-11-18T16:25:20.111Z,68.03
2022-11-18T16:36:31.378Z,68.54
2022-11-18T16:46:46.585Z,69.08
2022-11-18T16:56:50.624Z,69.95
2022-11-18T17:06:55.398Z,69.94
2022-11-18T17:17:01.528Z,71.17
2022-11-18T17:27:06.179Z,72.17
2022-11-18T17:37:09.368Z,73.34
2022-11-18T17:47:13.841Z,72.92
2022-11-18T17:57:16.882Z,71.68
2022-11-18T18:07:21.382Z,71.85
2022-11-18T18:17:24.468Z,71.76
2022-11-18T18:27:28.847Z,72.22
2022-11-18T18:37:31.931Z,72.43
2022-11-18T18:47:36.586Z,72.29
2022-11-18T18:57:39.631Z,74.42
2022-11-18T19:07:44.366Z,75.33
2022-11-18T19:17:47.949Z,74.94
2022-11-18T19:27:52.231Z,74.75
2022-11-18T19:37:55.266Z,75.87
2022-11-18T19:48:02.173Z,76.18
2022-11-18T19:58:05.260Z,76.07
2022-11-18T20:08:09.520Z,77.10
2022-11-18T20:18:12.834Z,77.68
2022-11-18T20:28:17.245Z,77.91
2022-11-18T20:38:20.218Z,78.80
2022-11-18T20:48:24.771Z,80.40
2022-11-18T20:58:27.856Z,81.38
2022-11-18T21:08:32.188Z,84.19
2022-11-18T21:18:35.242Z,84.46
2022-11-18T21:28:39.478Z,84.70
2022-11-18T21:38:42.660Z,85.49
2022-11-18T21:48:47.239Z,87.23
2022-11-18T21:58:50.772Z,85.86
2022-11-18T22:08:55.304Z,86.12
2022-11-18T22:19:03.632Z,86.24
2022-11-18T22:29:11.205Z,86.66
2022-11-18T22:39:14.206Z,86.51
2022-11-18T22:49:18.901Z,86.69
2022-11-18T22:59:22.460Z,87.40
2022-11-18T23:09:27.152Z,87.46
2022-11-18T23:19:30.106Z,87.10
2022-11-18T23:29:34.520Z,86.79
2022-11-18T23:39:37.590Z,87.35
2022-11-18T23:49:41.845Z,87.17
2022-11-18T23:59:44.919Z,87.58
